VILK/LKO METAR and TAF weather

Enter ICAO airport designator
Station Type Date Time Source
VILK METAR 2019/10/22 16:00 UTC NOAA

VILK 221600Z 00000KT 2500 BR FEW020 SCT100 22/21 Q1010 NOSIG


Station Type Date Time Source
VILK Decoded METAR 2019/10/22 16:00 UTC NOAA

Lucknow / Amausi, India (VILK) 26-45N 080-53E 128M
Oct 22, 2019 - 12:00 PM EDT / 2019.10.22 1600 UTC
Wind: Calm:0
Visibility: 1 mile(s):0
Sky conditions: partly cloudy
Weather: mist
Temperature: 71 F (22 C)
Dew Point: 69 F (21 C)
Relative Humidity: 94%
Pressure (altimeter): 29.83 in. Hg (1010 hPa)
ob: VILK 221600Z 00000KT 2500 BR FEW020 SCT100 22/21 Q1010 NOSIG
cycle: 16

Station Type Date Time Source
VILK TAF 2019/10/22 12:21 UTC NOAA

TAF VILK 221100Z 2212/2318 29004KT 4000 HZ FEW100
BECMG 2216/2218 VRB02KT 2000 BR
BECMG 2300/2302 1500 BR
BECMG 2306/2308 29005 3000 BR HZ
BECMG 2315/2317 VRB02KT 2000 HZ BR

Example: see airport list